createdAt,value
2018-06-09T00:02:18.267Z,9.80
2018-06-09T00:04:46.715Z,9.33
2018-06-09T00:07:15.167Z,9.77
2018-06-09T00:09:43.590Z,9.17
2018-06-09T00:12:12.139Z,8.03
2018-06-09T00:14:40.612Z,8.37
2018-06-09T00:17:09.016Z,7.80
2018-06-09T00:19:37.530Z,8.07
2018-06-09T00:22:06.049Z,8.00
2018-06-09T00:24:34.550Z,7.83
2018-06-09T00:27:02.972Z,8.07
2018-06-09T00:29:31.357Z,7.50
2018-06-09T00:31:59.793Z,8.33
2018-06-09T00:34:28.244Z,7.93
2018-06-09T00:36:56.618Z,8.10
2018-06-09T00:39:25.064Z,7.90
2018-06-09T00:41:53.483Z,7.67
2018-06-09T00:44:21.889Z,7.53
2018-06-09T00:46:50.305Z,7.87
2018-06-09T00:49:18.726Z,8.13
2018-06-09T00:51:47.141Z,7.90
2018-06-09T00:54:15.527Z,6.57
2018-06-09T00:56:45.204Z,6.63
2018-06-09T00:59:13.634Z,7.03
2018-06-09T01:01:42.256Z,6.57
2018-06-09T01:04:10.752Z,7.20
2018-06-09T01:06:39.156Z,6.80
2018-06-09T01:09:08.557Z,6.90
2018-06-09T01:11:37.121Z,6.47
2018-06-09T01:14:05.624Z,8.33
2018-06-09T01:16:34.037Z,7.63
2018-06-09T01:19:02.584Z,7.47
2018-06-09T01:21:30.975Z,6.83
2018-06-09T01:23:59.578Z,7.00
2018-06-09T01:26:28.030Z,7.17
2018-06-09T01:28:56.446Z,7.27
2018-06-09T01:31:24.921Z,7.30
2018-06-09T01:33:53.309Z,8.30
2018-06-09T01:36:21.714Z,8.63
2018-06-09T01:38:50.204Z,8.60
2018-06-09T01:41:18.581Z,9.30
2018-06-09T01:43:47.027Z,9.07
2018-06-09T01:46:15.608Z,9.67
2018-06-09T01:48:44.087Z,9.33
2018-06-09T01:51:12.477Z,9.63
2018-06-09T01:53:40.874Z,9.90
2018-06-09T01:56:09.269Z,10.10
2018-06-09T01:58:37.355Z,10.33
2018-06-09T02:01:05.793Z,10.80
2018-06-09T02:03:34.193Z,10.43
2018-06-09T02:06:02.672Z,10.07
2018-06-09T02:08:31.093Z,11.00
2018-06-09T02:10:59.486Z,11.47
2018-06-09T02:13:27.888Z,10.20
2018-06-09T02:15:56.424Z,10.77
2018-06-09T02:18:24.834Z,11.67
2018-06-09T02:20:53.216Z,11.70
2018-06-09T02:23:21.729Z,12.00
2018-06-09T02:25:50.146Z,11.60
2018-06-09T02:28:18.597Z,11.60
2018-06-09T02:30:47.013Z,11.60
2018-06-09T02:33:15.484Z,11.73
2018-06-09T02:35:43.900Z,11.67
2018-06-09T02:38:12.321Z,11.67
2018-06-09T02:40:40.794Z,12.10
2018-06-09T02:43:09.345Z,12.07
2018-06-09T02:45:37.849Z,11.10
2018-06-09T02:48:06.302Z,12.00
2018-06-09T02:50:34.708Z,12.13
2018-06-09T02:53:03.237Z,12.77
2018-06-09T02:55:31.656Z,12.63
2018-06-09T02:57:59.819Z,12.80
2018-06-09T03:00:28.343Z,12.23
2018-06-09T03:02:56.927Z,12.80
2018-06-09T03:05:25.735Z,12.57
2018-06-09T03:07:54.184Z,13.30
2018-06-09T03:10:22.626Z,12.87
2018-06-09T03:12:51.073Z,12.83
2018-06-09T03:15:19.468Z,12.77
2018-06-09T03:17:47.879Z,13.37
2018-06-09T03:20:16.314Z,13.13
2018-06-09T03:22:44.696Z,14.13
2018-06-09T03:25:13.173Z,13.40
2018-06-09T03:27:41.599Z,12.77
2018-06-09T03:30:10.021Z,13.43
2018-06-09T03:32:38.499Z,13.60
2018-06-09T03:35:06.916Z,13.37
2018-06-09T03:37:35.448Z,12.90
2018-06-09T03:40:04.124Z,13.47
2018-06-09T03:42:32.775Z,12.97
2018-06-09T03:45:01.275Z,12.47
2018-06-09T03:47:29.385Z,13.07
2018-06-09T03:49:57.869Z,12.50
2018-06-09T03:52:26.280Z,13.37
2018-06-09T03:54:54.739Z,12.93
2018-06-09T03:57:23.118Z,13.23
2018-06-09T03:59:51.594Z,13.93
2018-06-09T04:02:20.133Z,13.07
2018-06-09T04:04:48.573Z,12.60
2018-06-09T04:07:17.030Z,13.97
2018-06-09T04:09:45.412Z,13.83
2018-06-09T04:12:14.178Z,13.47
2018-06-09T04:14:42.644Z,13.30
2018-06-09T04:17:11.928Z,13.43
2018-06-09T04:19:40.366Z,13.23
2018-06-09T04:22:08.936Z,14.17
2018-06-09T04:24:37.428Z,13.47
2018-06-09T04:27:05.840Z,13.80
2018-06-09T04:29:34.334Z,13.40
2018-06-09T04:32:02.844Z,12.50
2018-06-09T04:34:31.294Z,13.23
2018-06-09T04:36:59.746Z,13.13
2018-06-09T04:39:28.164Z,12.47
2018-06-09T04:41:56.579Z,12.80
2018-06-09T04:44:24.981Z,13.53
2018-06-09T04:46:53.526Z,12.30
2018-06-09T04:49:21.968Z,12.57
2018-06-09T04:51:50.404Z,12.33
2018-06-09T04:54:18.804Z,11.60
2018-06-09T04:56:47.279Z,11.67
2018-06-09T04:59:15.856Z,12.40
2018-06-09T05:01:45.248Z,12.60
2018-06-09T05:04:14.000Z,11.47
2018-06-09T05:06:42.389Z,11.97
2018-06-09T05:09:10.797Z,11.73
2018-06-09T05:11:39.234Z,11.63
2018-06-09T05:14:07.658Z,11.63
2018-06-09T05:16:36.197Z,11.83
2018-06-09T05:19:04.633Z,12.63
2018-06-09T05:21:33.102Z,10.97
2018-06-09T05:24:01.609Z,11.67
2018-06-09T05:26:30.101Z,11.37
2018-06-09T05:28:58.517Z,11.57
2018-06-09T05:31:26.967Z,13.00
2018-06-09T05:33:55.474Z,12.37
2018-06-09T05:36:23.953Z,11.93
2018-06-09T05:38:52.445Z,11.83
2018-06-09T05:41:21.087Z,12.43
2018-06-09T05:43:49.463Z,11.97
2018-06-09T05:46:17.907Z,11.03
2018-06-09T05:48:46.382Z,11.67
2018-06-09T05:51:14.803Z,10.90
2018-06-09T05:53:43.222Z,11.63
2018-06-09T05:56:11.669Z,11.00
2018-06-09T05:58:40.114Z,11.00
2018-06-09T06:01:08.527Z,11.40
2018-06-09T06:03:36.969Z,11.13
2018-06-09T06:06:05.434Z,10.93
2018-06-09T06:08:33.853Z,11.50
2018-06-09T06:11:02.273Z,10.17
2018-06-09T06:13:30.718Z,10.87
2018-06-09T06:15:59.167Z,12.17
2018-06-09T06:18:27.976Z,11.13
2018-06-09T06:20:56.517Z,11.37
2018-06-09T06:23:24.955Z,12.27
2018-06-09T06:25:53.393Z,12.47
2018-06-09T06:28:21.857Z,12.63
2018-06-09T06:30:50.373Z,12.80
2018-06-09T06:33:18.787Z,13.33
2018-06-09T06:35:46.892Z,13.60
2018-06-09T06:38:15.327Z,16.27
2018-06-09T06:40:43.828Z,13.77
2018-06-09T06:43:12.276Z,14.30
2018-06-09T06:45:40.716Z,13.50
2018-06-09T06:48:09.174Z,12.80
2018-06-09T06:50:37.693Z,13.43
2018-06-09T06:53:06.160Z,13.20
2018-06-09T06:55:34.681Z,13.17
2018-06-09T06:58:05.483Z,14.07
2018-06-09T07:00:34.126Z,13.83
2018-06-09T07:03:02.932Z,13.97
2018-06-09T07:05:31.565Z,15.70
2018-06-09T07:08:00.251Z,13.73
2018-06-09T07:10:28.670Z,14.43
2018-06-09T07:12:57.234Z,14.30
2018-06-09T07:15:25.774Z,13.00
2018-06-09T07:17:54.212Z,13.13
2018-06-09T07:20:22.674Z,13.57
2018-06-09T07:22:51.172Z,14.43
2018-06-09T07:25:19.326Z,14.10
2018-06-09T07:27:47.811Z,12.47
2018-06-09T07:30:16.024Z,12.37
2018-06-09T07:32:44.476Z,13.83
2018-06-09T07:35:13.032Z,14.73
2018-06-09T07:37:41.418Z,14.63
2018-06-09T07:40:10.304Z,14.50
2018-06-09T07:42:45.526Z,13.73
2018-06-09T07:45:14.161Z,13.53
2018-06-09T07:47:42.669Z,15.60
2018-06-09T07:50:11.264Z,13.90
2018-06-09T07:52:39.931Z,13.77
2018-06-09T07:55:08.364Z,13.37
2018-06-09T07:57:37.028Z,13.13
2018-06-09T08:00:05.602Z,15.17
2018-06-09T08:02:34.155Z,14.17
2018-06-09T08:05:02.851Z,13.53
2018-06-09T08:07:31.542Z,14.00
2018-06-09T08:10:00.001Z,12.77
2018-06-09T08:12:28.549Z,12.63
2018-06-09T08:14:57.042Z,13.40
2018-06-09T08:17:25.647Z,13.83
2018-06-09T08:19:54.087Z,14.23
2018-06-09T08:22:22.606Z,14.63
2018-06-09T08:24:51.168Z,14.70
2018-06-09T08:27:19.875Z,14.07
2018-06-09T08:29:48.484Z,13.53
2018-06-09T08:32:17.029Z,13.27
2018-06-09T08:34:45.690Z,14.30
2018-06-09T08:37:14.195Z,13.47
2018-06-09T08:39:42.671Z,13.27
2018-06-09T08:42:11.175Z,14.83
2018-06-09T08:44:39.646Z,15.63
2018-06-09T08:47:07.807Z,12.47
2018-06-09T08:49:37.283Z,14.30
2018-06-09T08:52:05.751Z,14.87
2018-06-09T08:54:34.721Z,13.30
2018-06-09T08:57:06.908Z,14.03
2018-06-09T08:59:35.372Z,14.20
2018-06-09T09:02:03.837Z,13.90
2018-06-09T09:04:32.610Z,13.47
2018-06-09T09:07:01.122Z,13.07
2018-06-09T09:09:29.762Z,12.70
2018-06-09T09:11:58.276Z,15.70
2018-06-09T09:14:26.828Z,12.40
2018-06-09T09:16:55.385Z,14.53
2018-06-09T09:19:24.038Z,13.87
2018-06-09T09:21:52.521Z,14.83
2018-06-09T09:24:21.026Z,13.87
2018-06-09T09:26:49.599Z,13.77
2018-06-09T09:29:18.057Z,14.40
2018-06-09T09:31:46.521Z,12.37
2018-06-09T09:34:15.551Z,13.27
2018-06-09T09:36:44.083Z,12.53
2018-06-09T09:39:12.224Z,13.47
2018-06-09T09:41:40.920Z,14.30
2018-06-09T09:44:09.348Z,14.67
2018-06-09T09:46:37.936Z,15.83
2018-06-09T09:49:06.459Z,16.50
2018-06-09T09:51:34.962Z,14.97
2018-06-09T09:54:03.542Z,14.67
2018-06-09T09:56:32.192Z,15.47
2018-06-09T09:59:00.744Z,15.00
2018-06-09T10:01:29.192Z,17.60
2018-06-09T10:03:57.661Z,15.37
2018-06-09T10:06:26.166Z,14.43
2018-06-09T10:08:54.627Z,14.57
2018-06-09T10:11:23.080Z,15.00
2018-06-09T10:13:51.560Z,13.53
2018-06-09T10:16:20.026Z,14.03
2018-06-09T10:18:48.574Z,13.40
2018-06-09T10:21:17.048Z,13.60
2018-06-09T10:23:45.235Z,13.67
2018-06-09T10:26:13.692Z,14.70
2018-06-09T10:28:41.866Z,12.37
2018-06-09T10:31:10.018Z,12.47
2018-06-09T10:33:38.530Z,13.40
2018-06-09T10:36:07.003Z,13.00
2018-06-09T10:38:35.491Z,12.33
2018-06-09T10:41:03.956Z,13.73
2018-06-09T10:43:32.404Z,13.83
2018-06-09T10:46:00.874Z,12.70
2018-06-09T10:48:29.315Z,14.90
2018-06-09T10:50:57.748Z,13.23
2018-06-09T10:53:26.135Z,11.50
2018-06-09T10:55:54.567Z,13.40
2018-06-09T10:58:23.055Z,11.53
2018-06-09T11:00:51.467Z,11.80
2018-06-09T11:03:19.911Z,11.50
2018-06-09T11:05:48.339Z,11.30
2018-06-09T11:08:16.813Z,12.50
2018-06-09T11:10:45.272Z,11.93
2018-06-09T11:13:13.817Z,11.77
2018-06-09T11:15:42.293Z,12.50
2018-06-09T11:18:10.831Z,12.13
2018-06-09T11:20:39.340Z,11.10
2018-06-09T11:23:07.835Z,12.07
2018-06-09T11:25:36.293Z,11.33
2018-06-09T11:28:04.756Z,11.10
2018-06-09T11:30:33.161Z,11.60
2018-06-09T11:33:01.673Z,11.00
2018-06-09T11:35:30.236Z,11.43
2018-06-09T11:37:58.768Z,10.67
2018-06-09T11:40:27.197Z,12.00
2018-06-09T11:42:55.627Z,11.03
2018-06-09T11:45:24.208Z,11.03
2018-06-09T11:47:52.736Z,10.23
2018-06-09T11:50:21.212Z,10.20
2018-06-09T11:52:49.720Z,7.90
2018-06-09T11:55:18.281Z,7.60
2018-06-09T11:57:46.746Z,6.63
2018-06-09T12:00:15.243Z,7.40
2018-06-09T12:02:43.429Z,6.83
2018-06-09T12:05:11.931Z,8.63
2018-06-09T12:07:40.399Z,8.33
2018-06-09T12:10:08.888Z,7.97
2018-06-09T12:12:37.296Z,7.93
2018-06-09T12:15:06.378Z,7.10
2018-06-09T12:17:34.921Z,8.50
2018-06-09T12:20:03.524Z,9.60
2018-06-09T12:22:32.003Z,10.73
2018-06-09T12:25:00.553Z,8.97
2018-06-09T12:27:29.101Z,8.57
2018-06-09T12:29:57.579Z,6.70
2018-06-09T12:32:26.137Z,6.37
2018-06-09T12:34:54.647Z,6.47
2018-06-09T12:37:23.171Z,6.53
2018-06-09T12:39:51.654Z,5.50
2018-06-09T12:42:20.163Z,6.30
2018-06-09T12:44:48.672Z,6.53
2018-06-09T12:47:17.234Z,6.70
2018-06-09T12:49:45.697Z,7.03
2018-06-09T12:52:14.188Z,7.27
2018-06-09T12:54:42.597Z,7.70
2018-06-09T12:57:11.064Z,6.60
2018-06-09T12:59:39.495Z,6.73
2018-06-09T13:02:07.947Z,6.10
2018-06-09T13:04:36.570Z,6.63
2018-06-09T13:07:05.272Z,6.23
2018-06-09T13:09:33.789Z,6.00
2018-06-09T13:12:02.281Z,6.50
2018-06-09T13:14:30.880Z,6.67
2018-06-09T13:16:59.346Z,6.67
2018-06-09T13:19:27.826Z,6.37
2018-06-09T13:21:56.422Z,6.27
2018-06-09T13:24:24.865Z,6.53
2018-06-09T13:26:53.314Z,6.03
2018-06-09T13:29:21.806Z,6.33
2018-06-09T13:31:50.348Z,6.60
2018-06-09T13:34:18.884Z,6.70
2018-06-09T13:36:47.339Z,6.23
2018-06-09T13:39:16.045Z,7.00
2018-06-09T13:41:44.621Z,7.10
2018-06-09T13:44:13.059Z,7.07
2018-06-09T13:46:41.539Z,7.33
2018-06-09T13:49:10.077Z,7.17
2018-06-09T13:51:38.607Z,7.90
2018-06-09T13:54:07.065Z,8.03
2018-06-09T13:56:35.677Z,8.67
2018-06-09T13:59:04.121Z,9.90
2018-06-09T14:01:32.641Z,9.97
2018-06-09T14:04:01.116Z,11.27
2018-06-09T14:06:29.593Z,11.27
2018-06-09T14:08:58.151Z,11.30
2018-06-09T14:11:26.730Z,12.40
2018-06-09T14:13:55.210Z,13.03
2018-06-09T14:16:23.880Z,12.87
2018-06-09T14:18:52.421Z,10.40
2018-06-09T14:21:20.958Z,9.77
2018-06-09T14:23:49.525Z,9.27
2018-06-09T14:26:18.108Z,8.40
2018-06-09T14:28:47.041Z,8.83
2018-06-09T14:31:15.295Z,8.10
2018-06-09T14:33:43.856Z,7.67
2018-06-09T14:36:12.391Z,7.70
2018-06-09T14:38:40.895Z,7.90
2018-06-09T14:41:09.442Z,7.37
2018-06-09T14:43:37.972Z,7.00
2018-06-09T14:46:06.512Z,6.70
2018-06-09T14:48:35.071Z,7.27
2018-06-09T14:51:03.650Z,7.90
2018-06-09T14:53:32.121Z,7.37
2018-06-09T14:56:00.588Z,7.30
2018-06-09T14:58:29.062Z,7.57
2018-06-09T15:00:57.765Z,8.83
2018-06-09T15:03:26.237Z,8.67
2018-06-09T15:05:54.824Z,8.43
2018-06-09T15:08:23.360Z,7.50
2018-06-09T15:10:51.979Z,7.20
2018-06-09T15:13:20.538Z,6.97
2018-06-09T15:15:49.241Z,7.50
2018-06-09T15:18:17.734Z,7.67
2018-06-09T15:20:46.281Z,6.43
2018-06-09T15:23:14.846Z,6.00
2018-06-09T15:25:43.292Z,7.20
2018-06-09T15:28:11.805Z,7.67
2018-06-09T15:30:40.326Z,8.67
2018-06-09T15:33:08.878Z,7.60
2018-06-09T15:35:37.396Z,7.70
2018-06-09T15:38:05.919Z,7.77
2018-06-09T15:40:34.346Z,7.90
2018-06-09T15:43:03.108Z,8.20
2018-06-09T15:45:31.851Z,8.00
2018-06-09T15:48:00.523Z,8.27
2018-06-09T15:50:29.201Z,8.73
2018-06-09T15:52:57.776Z,8.30
2018-06-09T15:55:26.581Z,8.73
2018-06-09T15:57:55.181Z,9.30
2018-06-09T16:00:23.771Z,8.17
2018-06-09T16:02:52.368Z,9.50
2018-06-09T16:05:20.879Z,9.50
2018-06-09T16:07:49.371Z,9.67
2018-06-09T16:10:17.906Z,8.07
2018-06-09T16:12:46.341Z,8.30
2018-06-09T16:15:14.826Z,9.30
2018-06-09T16:17:43.306Z,8.87
2018-06-09T16:20:11.803Z,8.83
2018-06-09T16:22:40.269Z,8.20
2018-06-09T16:25:08.883Z,8.50
2018-06-09T16:27:37.434Z,8.27
2018-06-09T16:30:06.095Z,8.00
2018-06-09T16:32:34.721Z,8.60
2018-06-09T16:35:03.340Z,8.40
2018-06-09T16:37:31.800Z,8.30
2018-06-09T16:40:00.260Z,9.77
2018-06-09T16:42:28.874Z,9.47
2018-06-09T16:44:57.384Z,11.23
2018-06-09T16:47:25.910Z,9.60
2018-06-09T16:49:54.488Z,8.60
2018-06-09T16:52:23.007Z,9.10
2018-06-09T16:54:51.530Z,9.03
2018-06-09T16:57:20.031Z,8.77
2018-06-09T16:59:48.550Z,9.23
2018-06-09T17:02:17.000Z,9.10
2018-06-09T17:04:45.502Z,9.50
2018-06-09T17:07:14.084Z,9.33
2018-06-09T17:09:42.605Z,9.20
2018-06-09T17:12:11.013Z,9.17
2018-06-09T17:14:39.467Z,9.30
2018-06-09T17:17:07.941Z,9.03
2018-06-09T17:19:36.485Z,10.07
2018-06-09T17:22:05.033Z,8.80
2018-06-09T17:24:33.489Z,9.57
2018-06-09T17:27:01.923Z,9.40
2018-06-09T17:29:30.430Z,9.63
2018-06-09T17:31:58.953Z,9.70
2018-06-09T17:34:27.469Z,9.67
2018-06-09T17:36:56.122Z,10.50
2018-06-09T17:39:24.601Z,9.27
2018-06-09T17:41:53.078Z,9.60
2018-06-09T17:44:21.669Z,9.00
2018-06-09T17:46:50.177Z,9.10
2018-06-09T17:49:18.606Z,9.80
2018-06-09T17:51:47.147Z,8.97
2018-06-09T17:54:16.007Z,8.70
2018-06-09T17:56:44.574Z,9.97
2018-06-09T17:59:13.036Z,9.53
2018-06-09T18:01:41.596Z,9.57
2018-06-09T18:04:10.098Z,9.10
2018-06-09T18:06:38.700Z,9.33
2018-06-09T18:09:08.370Z,8.67
2018-06-09T18:11:37.011Z,8.63
2018-06-09T18:14:05.655Z,8.53
2018-06-09T18:16:34.264Z,9.27
2018-06-09T18:19:02.815Z,10.07
2018-06-09T18:21:31.424Z,10.20
2018-06-09T18:24:00.012Z,9.57
2018-06-09T18:26:28.527Z,9.70
2018-06-09T18:28:57.262Z,8.83
2018-06-09T18:31:25.616Z,10.10
2018-06-09T18:33:54.274Z,8.80
2018-06-09T18:36:22.908Z,9.77
2018-06-09T18:38:51.568Z,10.73
2018-06-09T18:41:20.200Z,11.13
2018-06-09T18:43:48.791Z,11.53
2018-06-09T18:46:17.266Z,10.83
2018-06-09T18:48:45.912Z,10.13
2018-06-09T18:51:14.493Z,10.07
2018-06-09T18:53:43.098Z,14.73
2018-06-09T18:56:11.706Z,11.20
2018-06-09T18:58:40.425Z,10.90
2018-06-09T19:01:09.029Z,10.37
2018-06-09T19:03:37.604Z,10.70
2018-06-09T19:06:06.240Z,10.83
2018-06-09T19:08:34.864Z,12.03
2018-06-09T19:11:03.618Z,11.83
2018-06-09T19:13:32.100Z,11.23
2018-06-09T19:16:00.732Z,11.37
2018-06-09T19:18:29.240Z,11.10
2018-06-09T19:20:57.789Z,12.20
2018-06-09T19:23:26.452Z,13.10
2018-06-09T19:25:54.929Z,12.27
2018-06-09T19:28:23.524Z,11.40
2018-06-09T19:30:54.907Z,12.50
2018-06-09T19:33:23.600Z,12.20
2018-06-09T19:35:52.317Z,12.43
2018-06-09T19:38:20.794Z,11.83
2018-06-09T19:40:49.305Z,13.47
2018-06-09T19:43:17.846Z,12.60
2018-06-09T19:45:46.437Z,13.27
2018-06-09T19:48:15.148Z,13.30
2018-06-09T19:50:43.753Z,13.43
2018-06-09T19:53:12.343Z,12.47
2018-06-09T19:55:40.876Z,13.80
2018-06-09T19:58:09.704Z,13.27
2018-06-09T20:00:38.410Z,13.00
2018-06-09T20:03:07.649Z,14.50
2018-06-09T20:05:36.207Z,14.43
2018-06-09T20:08:04.735Z,15.13
2018-06-09T20:10:33.313Z,16.33
2018-06-09T20:13:01.766Z,16.50
2018-06-09T20:15:30.239Z,14.87
2018-06-09T20:17:58.798Z,18.07
2018-06-09T20:20:27.391Z,17.73
2018-06-09T20:22:55.950Z,17.87
2018-06-09T20:25:24.597Z,18.40
2018-06-09T20:27:53.225Z,18.63
2018-06-09T20:30:21.811Z,17.57
2018-06-09T20:32:50.355Z,16.43
2018-06-09T20:35:18.982Z,17.93
2018-06-09T20:37:47.613Z,17.60
2018-06-09T20:40:16.301Z,16.27
2018-06-09T20:42:45.057Z,16.30
2018-06-09T20:45:14.157Z,16.23
2018-06-09T20:47:42.757Z,16.50
2018-06-09T20:50:11.386Z,16.77
2018-06-09T20:52:40.008Z,17.47
2018-06-09T20:55:08.739Z,18.47
2018-06-09T20:57:37.444Z,18.43
2018-06-09T21:00:06.189Z,18.23
2018-06-09T21:02:34.761Z,16.57
2018-06-09T21:05:03.308Z,18.30
2018-06-09T21:07:31.809Z,18.63
2018-06-09T21:10:00.274Z,17.00
2018-06-09T21:12:28.734Z,17.77
2018-06-09T21:14:57.257Z,28.10
2018-06-09T21:17:25.739Z,45.87
2018-06-09T21:19:54.299Z,17.93
2018-06-09T21:22:22.846Z,19.27
2018-06-09T21:24:51.460Z,21.27
2018-06-09T21:27:25.565Z,45.53
2018-06-09T21:29:58.245Z,37.17
2018-06-09T21:32:27.730Z,35.77
2018-06-09T21:35:11.665Z,18.73
2018-06-09T21:37:47.204Z,20.60
2018-06-09T21:40:21.208Z,25.53
2018-06-09T21:42:55.558Z,20.67
2018-06-09T21:45:28.370Z,26.77
2018-06-09T21:47:57.056Z,33.47
2018-06-09T21:50:25.741Z,20.90
2018-06-09T21:52:54.700Z,22.00
2018-06-09T21:55:23.176Z,20.60
2018-06-09T21:57:51.713Z,24.97
2018-06-09T22:00:20.209Z,20.80
2018-06-09T22:02:48.692Z,20.50
2018-06-09T22:05:17.270Z,20.03
2018-06-09T22:07:45.894Z,19.00
2018-06-09T22:10:14.365Z,32.07
2018-06-09T22:12:42.814Z,20.30
2018-06-09T22:15:11.339Z,20.20
2018-06-09T22:17:39.870Z,31.50
2018-06-09T22:20:08.407Z,22.77
2018-06-09T22:22:36.984Z,71.80
2018-06-09T22:25:05.528Z,21.90
2018-06-09T22:27:34.086Z,22.93
2018-06-09T22:30:02.634Z,93.33
2018-06-09T22:32:31.195Z,20.33
2018-06-09T22:34:59.751Z,20.47
2018-06-09T22:37:28.282Z,21.67
2018-06-09T22:39:56.831Z,21.47
2018-06-09T22:42:25.470Z,21.27
2018-06-09T22:44:53.965Z,21.40
2018-06-09T22:47:22.500Z,22.00
2018-06-09T22:49:50.982Z,21.17
2018-06-09T22:52:19.483Z,21.27
2018-06-09T22:54:48.027Z,19.40
2018-06-09T22:57:16.591Z,20.63
2018-06-09T22:59:45.191Z,19.23
2018-06-09T23:02:13.718Z,20.47
2018-06-09T23:04:42.211Z,21.93
2018-06-09T23:07:10.466Z,20.40
2018-06-09T23:09:39.182Z,21.57
2018-06-09T23:12:07.742Z,21.33
2018-06-09T23:14:36.332Z,21.37
2018-06-09T23:17:04.857Z,21.80
2018-06-09T23:19:33.504Z,20.20
2018-06-09T23:22:02.115Z,22.10
2018-06-09T23:24:30.619Z,25.37
2018-06-09T23:26:59.113Z,23.50
2018-06-09T23:29:27.623Z,21.13
2018-06-09T23:31:56.411Z,21.13
2018-06-09T23:34:25.477Z,21.67
2018-06-09T23:36:53.993Z,20.60
2018-06-09T23:39:22.452Z,19.90
2018-06-09T23:41:51.158Z,20.67
2018-06-09T23:44:19.618Z,20.37
2018-06-09T23:46:48.613Z,20.63
2018-06-09T23:49:17.219Z,20.20
2018-06-09T23:51:46.624Z,20.67
2018-06-09T23:54:15.274Z,20.90
2018-06-09T23:56:43.792Z,20.50
2018-06-09T23:59:12.347Z,19.33
